createdAt,value
2022-12-23T00:01:37.975Z,8.73
2022-12-23T00:04:05.085Z,8.73
2022-12-23T00:06:31.863Z,8.69
2022-12-23T00:08:59.596Z,8.69
2022-12-23T00:11:27.844Z,8.71
2022-12-23T00:14:20.599Z,8.73
2022-12-23T00:16:49.117Z,8.73
2022-12-23T00:19:15.928Z,8.77
2022-12-23T00:21:42.636Z,9.01
2022-12-23T00:24:09.434Z,9.31
2022-12-23T00:26:36.212Z,9.66
2022-12-23T00:29:02.950Z,9.90
2022-12-23T00:31:29.811Z,10.16
2022-12-23T00:33:56.662Z,10.33
2022-12-23T00:36:29.032Z,10.49
2022-12-23T00:39:15.925Z,10.58
2022-12-23T00:42:01.995Z,10.64
2022-12-23T00:44:29.137Z,10.67
2022-12-23T00:46:55.859Z,10.83
2022-12-23T00:49:41.624Z,10.92
2022-12-23T00:52:10.972Z,10.91
2022-12-23T00:54:37.775Z,10.93
2022-12-23T00:57:04.876Z,10.99
2022-12-23T00:59:31.912Z,11.11
2022-12-23T01:02:17.426Z,11.07
2022-12-23T01:05:02.964Z,11.07
2022-12-23T01:07:29.710Z,11.08
2022-12-23T01:09:56.419Z,11.09
2022-12-23T01:12:23.156Z,11.05
2022-12-23T01:14:50.475Z,11.17
2022-12-23T01:17:18.647Z,11.24
2022-12-23T01:19:45.505Z,11.17
2022-12-23T01:22:14.960Z,11.12
2022-12-23T01:24:41.739Z,11.08
2022-12-23T01:30:23.763Z,11.15
2022-12-23T01:32:50.542Z,11.17
2022-12-23T01:35:17.474Z,11.12
2022-12-23T01:37:44.165Z,11.12
2022-12-23T01:40:11.129Z,11.12
2022-12-23T01:42:44.001Z,11.13
2022-12-23T01:45:38.994Z,11.14
2022-12-23T01:48:13.898Z,11.14
2022-12-23T01:50:51.855Z,11.13
2022-12-23T01:53:27.021Z,11.11
2022-12-23T01:56:06.578Z,11.12
2022-12-23T01:58:40.648Z,11.16
2022-12-23T02:01:27.377Z,11.15
2022-12-23T02:03:58.942Z,11.12
2022-12-23T02:06:51.998Z,11.15
2022-12-23T02:09:26.106Z,11.15
2022-12-23T02:12:17.615Z,11.21
2022-12-23T02:15:15.263Z,11.27
2022-12-23T02:17:57.364Z,11.26
2022-12-23T02:20:51.125Z,11.27
2022-12-23T02:23:31.781Z,11.24
2022-12-23T02:26:32.227Z,11.19
2022-12-23T02:29:27.049Z,11.13
2022-12-23T02:32:09.149Z,11.12
2022-12-23T02:34:55.939Z,11.13
2022-12-23T02:37:34.844Z,11.14
2022-12-23T02:40:12.077Z,11.18
2022-12-23T02:42:49.050Z,11.18
2022-12-23T02:45:26.420Z,11.18
2022-12-23T02:48:01.370Z,11.16
2022-12-23T02:50:33.407Z,11.16
2022-12-23T02:53:07.100Z,11.10
2022-12-23T02:55:36.734Z,11.08
2022-12-23T02:58:08.997Z,11.06
2022-12-23T03:00:38.391Z,11.04
2022-12-23T03:03:05.548Z,11.03
2022-12-23T03:05:41.092Z,11.03
2022-12-23T03:08:16.644Z,11.00
2022-12-23T03:11:05.861Z,11.00
2022-12-23T03:14:14.636Z,11.02
2022-12-23T03:17:12.346Z,11.05
2022-12-23T03:19:53.950Z,11.04
2022-12-23T03:22:38.025Z,11.00
2022-12-23T03:25:49.861Z,11.00
2022-12-23T03:28:39.863Z,11.03
2022-12-23T03:31:11.653Z,11.02
2022-12-23T03:33:42.534Z,11.03
2022-12-23T03:36:22.015Z,11.10
2022-12-23T03:38:51.271Z,11.06
2022-12-23T03:41:27.308Z,11.04
2022-12-23T03:44:20.551Z,11.06
2022-12-23T03:46:54.349Z,11.06
2022-12-23T03:49:31.317Z,11.07
2022-12-23T03:52:06.233Z,11.04
2022-12-23T03:55:00.168Z,11.07
2022-12-23T03:57:36.973Z,11.05
2022-12-23T04:00:04.826Z,11.06
2022-12-23T04:02:40.709Z,11.07
2022-12-23T04:05:19.715Z,11.07
2022-12-23T04:07:53.113Z,11.05
2022-12-23T04:10:22.379Z,11.01
2022-12-23T04:12:49.773Z,10.97
2022-12-23T04:15:25.273Z,10.92
2022-12-23T04:17:53.417Z,10.90
2022-12-23T04:20:23.026Z,10.89
2022-12-23T04:22:49.773Z,10.89
2022-12-23T04:25:17.444Z,10.85
2022-12-23T04:27:44.465Z,10.89
2022-12-23T04:30:13.744Z,10.86
2022-12-23T04:32:41.949Z,10.86
2022-12-23T04:35:09.900Z,10.85
2022-12-23T04:37:37.351Z,10.85
2022-12-23T04:40:05.229Z,10.83
2022-12-23T04:42:31.959Z,10.82
2022-12-23T04:44:58.945Z,10.84
2022-12-23T04:47:25.717Z,10.85
2022-12-23T04:49:52.532Z,10.86
2022-12-23T04:52:19.327Z,10.88
2022-12-23T04:54:46.656Z,10.89
2022-12-23T04:57:14.061Z,10.86
2022-12-23T04:59:40.827Z,10.85
2022-12-23T05:02:08.077Z,10.85
2022-12-23T05:04:35.239Z,10.82
2022-12-23T05:07:02.041Z,10.81
2022-12-23T05:09:28.828Z,10.82
2022-12-23T05:11:55.594Z,10.83
2022-12-23T05:14:22.389Z,10.86
2022-12-23T05:16:49.215Z,10.89
2022-12-23T05:19:16.524Z,10.93
2022-12-23T05:21:44.675Z,10.91
2022-12-23T05:24:11.556Z,10.94
2022-12-23T05:26:38.319Z,10.90
2022-12-23T05:29:06.096Z,10.89
2022-12-23T05:31:33.162Z,10.90
2022-12-23T05:34:06.093Z,10.92
2022-12-23T05:37:04.737Z,10.93
2022-12-23T05:39:31.662Z,10.90
2022-12-23T05:41:58.479Z,10.92
2022-12-23T05:44:25.443Z,10.91
2022-12-23T05:46:52.180Z,10.90
2022-12-23T05:49:19.205Z,10.89
2022-12-23T05:51:45.989Z,10.85
2022-12-23T05:54:12.779Z,10.80
2022-12-23T05:56:39.635Z,10.81
2022-12-23T05:59:06.880Z,10.80
2022-12-23T06:01:33.816Z,10.81
2022-12-23T06:04:00.737Z,10.83
2022-12-23T06:06:27.680Z,10.78
2022-12-23T06:08:59.386Z,10.76
2022-12-23T06:11:27.139Z,10.78
2022-12-23T06:13:54.024Z,10.79
2022-12-23T06:16:21.315Z,10.77
2022-12-23T06:18:48.169Z,10.76
2022-12-23T06:21:14.936Z,10.77
2022-12-23T06:23:41.658Z,10.76
2022-12-23T06:26:08.414Z,10.74
2022-12-23T06:28:35.101Z,10.73
2022-12-23T06:31:01.919Z,10.75
2022-12-23T06:33:28.677Z,10.75
2022-12-23T06:35:55.428Z,10.74
2022-12-23T06:38:22.373Z,10.73
2022-12-23T06:40:49.146Z,10.73
2022-12-23T06:43:15.917Z,10.74
2022-12-23T06:45:47.357Z,10.78
2022-12-23T06:48:14.456Z,10.78
2022-12-23T06:50:41.179Z,10.77
2022-12-23T06:53:08.007Z,10.77
2022-12-23T06:55:35.183Z,10.76
2022-12-23T06:58:01.878Z,10.74
2022-12-23T07:00:28.629Z,10.75
2022-12-23T07:02:55.576Z,10.76
2022-12-23T07:05:22.608Z,10.73
2022-12-23T07:07:49.489Z,10.70
2022-12-23T07:10:16.309Z,10.72
2022-12-23T07:12:48.979Z,10.73
2022-12-23T07:15:17.471Z,10.74
2022-12-23T07:17:44.178Z,10.74
2022-12-23T07:20:13.371Z,10.74
2022-12-23T07:22:40.227Z,10.81
2022-12-23T07:25:07.710Z,10.82
2022-12-23T07:27:34.457Z,10.81
2022-12-23T07:30:01.375Z,10.83
2022-12-23T07:32:28.180Z,10.83
2022-12-23T07:34:54.896Z,10.83
2022-12-23T07:37:21.771Z,10.83
2022-12-23T07:39:48.590Z,10.89
2022-12-23T07:45:02.137Z,10.96
2022-12-23T07:47:28.960Z,10.95
2022-12-23T07:49:55.660Z,10.96
2022-12-23T07:52:23.104Z,10.92
2022-12-23T07:54:49.845Z,10.92
2022-12-23T07:57:16.665Z,10.92
2022-12-23T07:59:43.412Z,10.87
2022-12-23T08:02:11.488Z,10.88
2022-12-23T08:04:44.127Z,10.89
2022-12-23T08:07:12.600Z,10.87
2022-12-23T08:09:39.413Z,10.86
2022-12-23T08:12:06.521Z,10.87
2022-12-23T08:14:33.453Z,10.86
2022-12-23T08:17:00.258Z,10.86
2022-12-23T08:19:27.082Z,10.89
2022-12-23T08:21:53.826Z,10.87
2022-12-23T08:24:20.725Z,10.90
2022-12-23T08:26:47.414Z,10.93
2022-12-23T08:29:14.296Z,10.97
2022-12-23T08:31:41.096Z,11.00
2022-12-23T08:34:08.025Z,11.01
2022-12-23T08:36:35.719Z,10.99
2022-12-23T08:39:06.406Z,10.99
2022-12-23T08:41:36.410Z,10.98
2022-12-23T08:44:04.338Z,11.01
2022-12-23T08:46:31.244Z,11.01
2022-12-23T08:48:58.538Z,11.00
2022-12-23T08:51:26.904Z,11.03
2022-12-23T08:54:00.994Z,11.02
2022-12-23T08:56:31.861Z,11.03
2022-12-23T08:59:00.785Z,11.01
2022-12-23T09:01:30.211Z,11.00
2022-12-23T09:03:57.434Z,11.01
2022-12-23T09:06:29.859Z,11.02
2022-12-23T09:08:58.279Z,11.04
2022-12-23T09:11:27.636Z,11.02
2022-12-23T09:13:56.015Z,11.05
2022-12-23T09:16:23.430Z,11.05
2022-12-23T09:18:50.322Z,11.07
2022-12-23T09:21:22.168Z,11.08
2022-12-23T09:23:49.200Z,11.11
2022-12-23T09:26:25.953Z,11.11
2022-12-23T09:28:53.609Z,11.11
2022-12-23T09:31:21.285Z,11.11
2022-12-23T09:33:50.353Z,11.10
2022-12-23T09:36:17.877Z,11.09
2022-12-23T09:38:44.629Z,11.10
2022-12-23T09:41:23.407Z,11.11
2022-12-23T09:44:13.790Z,11.10
2022-12-23T09:46:53.469Z,11.08
2022-12-23T09:49:22.717Z,11.07
2022-12-23T09:51:53.998Z,11.05
2022-12-23T09:54:24.138Z,11.04
2022-12-23T09:57:16.468Z,11.04
2022-12-23T09:59:49.425Z,11.04
2022-12-23T10:02:34.530Z,11.06
2022-12-23T10:05:46.163Z,11.05
2022-12-23T10:08:34.625Z,11.07
2022-12-23T10:11:13.191Z,11.09
2022-12-23T10:13:44.489Z,11.12
2022-12-23T10:16:49.153Z,11.14
2022-12-23T10:19:23.651Z,11.15
2022-12-23T10:21:55.391Z,11.15
2022-12-23T10:24:46.090Z,11.14
2022-12-23T10:27:34.115Z,11.15
2022-12-23T10:30:33.695Z,11.17
2022-12-23T10:32:59.716Z,11.16
2022-12-23T10:35:29.484Z,11.17
2022-12-23T10:38:10.018Z,11.16
2022-12-23T10:40:51.938Z,11.15
2022-12-23T10:43:27.799Z,11.17
2022-12-23T10:46:15.657Z,11.16
2022-12-23T10:48:57.804Z,11.18
2022-12-23T10:51:32.938Z,11.22
2022-12-23T10:54:05.871Z,11.27
2022-12-23T10:56:32.929Z,11.28
2022-12-23T10:59:00.959Z,11.27
2022-12-23T11:01:30.994Z,11.28
2022-12-23T11:04:13.793Z,11.29
2022-12-23T11:07:10.676Z,11.27
2022-12-23T11:09:56.867Z,11.25
2022-12-23T11:12:41.995Z,11.24
2022-12-23T11:15:30.885Z,11.29
2022-12-23T11:18:13.283Z,11.28
2022-12-23T11:20:42.433Z,11.25
2022-12-23T11:23:29.250Z,11.25
2022-12-23T11:26:07.358Z,11.26
2022-12-23T11:28:40.730Z,11.27
2022-12-23T11:31:12.323Z,11.27
2022-12-23T11:34:01.088Z,11.30
2022-12-23T11:36:30.136Z,11.31
2022-12-23T11:39:19.312Z,11.36
2022-12-23T11:41:49.213Z,11.38
2022-12-23T11:44:42.924Z,11.38
2022-12-23T11:47:29.284Z,11.39
2022-12-23T11:50:04.473Z,11.39
2022-12-23T11:52:33.411Z,11.39
2022-12-23T11:55:05.630Z,11.35
2022-12-23T11:57:40.834Z,11.33
2022-12-23T12:00:26.343Z,11.33
2022-12-23T12:02:56.909Z,11.37
2022-12-23T12:05:35.726Z,11.36
2022-12-23T12:08:06.870Z,11.36
2022-12-23T12:10:37.451Z,11.34
2022-12-23T12:13:25.495Z,11.37
2022-12-23T12:16:05.914Z,11.39
2022-12-23T12:18:34.421Z,11.39
2022-12-23T12:21:06.810Z,11.40
2022-12-23T12:24:18.346Z,11.41
2022-12-23T12:26:51.367Z,11.44
2022-12-23T12:29:30.748Z,11.46
2022-12-23T12:32:01.282Z,11.47
2022-12-23T12:34:52.065Z,11.45
2022-12-23T12:37:41.033Z,11.48
2022-12-23T12:40:20.707Z,11.50
2022-12-23T12:43:26.387Z,11.47
2022-12-23T12:46:22.935Z,11.47
2022-12-23T12:49:05.381Z,11.48
2022-12-23T12:51:42.578Z,11.51
2022-12-23T12:54:25.129Z,11.53
2022-12-23T12:56:55.139Z,11.53
2022-12-23T12:59:26.712Z,11.53
2022-12-23T13:02:09.537Z,11.56
2022-12-23T13:05:03.136Z,11.55
2022-12-23T13:08:06.262Z,11.58
2022-12-23T13:10:51.576Z,11.55
2022-12-23T13:13:30.412Z,11.59
2022-12-23T13:16:08.790Z,11.59
2022-12-23T13:19:04.577Z,11.56
2022-12-23T13:21:46.891Z,11.61
2022-12-23T13:24:26.901Z,11.65
2022-12-23T13:27:12.890Z,11.66
2022-12-23T13:29:46.753Z,11.63
2022-12-23T13:32:19.684Z,11.64
2022-12-23T13:35:21.843Z,11.60
2022-12-23T13:37:48.581Z,11.65
2022-12-23T13:40:39.676Z,11.70
2022-12-23T13:43:14.511Z,11.71
2022-12-23T13:45:42.567Z,11.73
2022-12-23T13:48:23.967Z,11.78
2022-12-23T13:50:59.545Z,11.74
2022-12-23T13:53:47.300Z,11.67
2022-12-23T13:56:29.350Z,11.64
2022-12-23T13:58:57.250Z,11.62
2022-12-23T14:01:42.620Z,11.63
2022-12-23T14:04:31.352Z,11.61
2022-12-23T14:07:05.093Z,11.65
2022-12-23T14:09:38.442Z,11.71
2022-12-23T14:12:12.904Z,11.80
2022-12-23T14:14:49.255Z,11.91
2022-12-23T14:17:29.827Z,11.99
2022-12-23T14:20:17.947Z,12.07
2022-12-23T14:23:23.635Z,12.10
2022-12-23T14:26:23.329Z,12.12
2022-12-23T14:29:00.736Z,12.10
2022-12-23T14:31:29.252Z,12.12
2022-12-23T14:34:07.317Z,12.11
2022-12-23T14:36:34.524Z,12.10
2022-12-23T14:39:13.709Z,12.11
2022-12-23T14:41:51.153Z,12.13
2022-12-23T14:44:46.317Z,12.28
2022-12-23T14:47:35.417Z,12.35
2022-12-23T14:50:41.112Z,12.35
2022-12-23T14:53:23.927Z,12.36
2022-12-23T14:56:12.103Z,12.41
2022-12-23T14:58:50.947Z,12.44
2022-12-23T15:01:38.103Z,12.54
2022-12-23T15:04:11.825Z,12.60
2022-12-23T15:06:41.971Z,12.64
2022-12-23T15:09:19.742Z,12.71
2022-12-23T15:11:46.944Z,12.75
2022-12-23T15:14:25.112Z,12.85
2022-12-23T15:16:52.178Z,12.92
2022-12-23T15:19:23.404Z,12.87
2022-12-23T15:22:00.274Z,12.88
2022-12-23T15:24:32.493Z,12.81
2022-12-23T15:29:51.528Z,12.97
2022-12-23T15:32:21.187Z,12.92
2022-12-23T15:34:50.009Z,12.93
2022-12-23T15:37:22.615Z,12.98
2022-12-23T15:39:54.152Z,13.00
2022-12-23T15:42:35.405Z,13.03
2022-12-23T15:45:23.401Z,13.07
2022-12-23T15:47:53.061Z,13.08
2022-12-23T15:50:20.067Z,13.01
2022-12-23T15:52:50.248Z,12.94
2022-12-23T15:55:22.481Z,12.93
2022-12-23T15:57:51.024Z,12.83
2022-12-23T16:00:24.595Z,12.75
2022-12-23T16:03:02.920Z,12.70
2022-12-23T16:05:33.504Z,12.62
2022-12-23T16:08:15.259Z,12.54
2022-12-23T16:10:43.683Z,12.54
2022-12-23T16:13:20.765Z,12.50
2022-12-23T16:15:47.562Z,12.50
2022-12-23T16:18:25.617Z,12.47
2022-12-23T16:21:13.865Z,12.44
2022-12-23T16:23:50.187Z,12.43
2022-12-23T16:26:21.016Z,12.47
2022-12-23T16:28:52.241Z,12.49
2022-12-23T16:31:20.829Z,12.47
2022-12-23T16:33:47.801Z,12.48
2022-12-23T16:36:20.858Z,12.50
2022-12-23T16:38:49.292Z,12.46
2022-12-23T16:41:16.083Z,12.47
2022-12-23T16:43:49.623Z,12.46
2022-12-23T16:46:20.978Z,12.49
2022-12-23T16:48:55.518Z,12.48
2022-12-23T16:51:23.494Z,12.52
2022-12-23T16:53:52.768Z,12.60
2022-12-23T16:56:21.631Z,12.53
2022-12-23T16:58:48.581Z,12.48
2022-12-23T17:01:24.079Z,12.40
2022-12-23T17:03:51.681Z,12.35
2022-12-23T17:06:19.891Z,12.29
2022-12-23T17:08:47.095Z,12.28
2022-12-23T17:11:21.766Z,12.27
2022-12-23T17:13:48.538Z,12.23
2022-12-23T17:16:19.896Z,12.21
2022-12-23T17:18:48.754Z,12.19
2022-12-23T17:21:31.497Z,12.18
2022-12-23T17:24:12.882Z,12.14
2022-12-23T17:26:40.038Z,12.11
2022-12-23T17:29:06.803Z,12.07
2022-12-23T17:31:34.523Z,12.07
2022-12-23T17:34:02.048Z,12.04
2022-12-23T17:36:29.860Z,12.08
2022-12-23T17:38:56.679Z,12.05
2022-12-23T17:41:33.351Z,12.01
2022-12-23T17:44:01.097Z,12.00
2022-12-23T17:46:29.111Z,12.02
2022-12-23T17:48:58.106Z,12.05
2022-12-23T17:51:26.645Z,12.01
2022-12-23T17:54:04.500Z,12.04
2022-12-23T17:56:31.335Z,12.05
2022-12-23T17:58:58.504Z,12.07
2022-12-23T18:01:28.501Z,12.10
2022-12-23T18:03:57.446Z,12.11
2022-12-23T18:06:26.586Z,12.18
2022-12-23T18:08:53.390Z,12.17
2022-12-23T18:11:43.867Z,12.20
2022-12-23T18:14:19.260Z,12.25
2022-12-23T18:16:47.155Z,12.23
2022-12-23T18:19:20.078Z,12.25
2022-12-23T18:21:47.149Z,12.21
2022-12-23T18:24:13.906Z,12.18
2022-12-23T18:26:40.699Z,12.17
2022-12-23T18:29:07.615Z,12.17
2022-12-23T18:31:37.348Z,12.16
2022-12-23T18:34:04.525Z,12.18
2022-12-23T18:36:33.907Z,12.16
2022-12-23T18:39:00.895Z,12.13
2022-12-23T18:41:30.608Z,12.09
2022-12-23T18:43:59.810Z,12.07
2022-12-23T18:46:26.624Z,12.06
2022-12-23T18:48:54.697Z,12.07
2022-12-23T18:51:22.024Z,12.06
2022-12-23T18:53:49.118Z,12.09
2022-12-23T18:56:19.259Z,12.13
2022-12-23T18:58:46.449Z,12.17
2022-12-23T19:01:18.484Z,12.24
2022-12-23T19:03:46.386Z,12.22
2022-12-23T19:06:15.063Z,12.18
2022-12-23T19:08:42.992Z,12.12
2022-12-23T19:11:19.389Z,12.07
2022-12-23T19:13:47.192Z,12.04
2022-12-23T19:16:16.549Z,12.06
2022-12-23T19:18:44.404Z,12.04
2022-12-23T19:21:11.327Z,12.01
2022-12-23T19:23:40.078Z,12.01
2022-12-23T19:26:09.762Z,11.99
2022-12-23T19:28:37.935Z,11.99
2022-12-23T19:31:12.613Z,11.97
2022-12-23T19:33:41.283Z,12.00
2022-12-23T19:36:19.721Z,11.98
2022-12-23T19:38:46.693Z,11.98
2022-12-23T19:41:13.600Z,12.03
2022-12-23T19:43:43.468Z,12.05
2022-12-23T19:46:11.849Z,12.08
2022-12-23T19:48:38.952Z,12.07
2022-12-23T19:51:10.022Z,12.09
2022-12-23T19:53:37.349Z,12.11
2022-12-23T19:56:11.830Z,12.11
2022-12-23T19:58:41.042Z,12.07
2022-12-23T20:01:21.916Z,12.06
2022-12-23T20:03:50.005Z,12.10
2022-12-23T20:06:35.162Z,12.10
2022-12-23T20:09:04.386Z,12.05
2022-12-23T20:11:37.045Z,12.06
2022-12-23T20:14:08.387Z,12.03
2022-12-23T20:16:44.144Z,12.02
2022-12-23T20:19:11.465Z,12.03
2022-12-23T20:21:38.471Z,11.98
2022-12-23T20:24:06.397Z,11.97
2022-12-23T20:26:39.012Z,11.96
2022-12-23T20:29:05.836Z,11.96
2022-12-23T20:31:35.562Z,11.97
2022-12-23T20:34:02.563Z,11.98
2022-12-23T20:36:32.140Z,11.99
2022-12-23T20:38:59.302Z,12.02
2022-12-23T20:41:28.256Z,12.06
2022-12-23T20:44:32.401Z,12.01
2022-12-23T20:46:42.076Z,11.95
2022-12-23T20:49:09.003Z,11.92
2022-12-23T20:51:36.048Z,11.89
2022-12-23T20:54:02.972Z,11.90
2022-12-23T20:56:33.007Z,11.93
2022-12-23T20:59:02.214Z,11.93
2022-12-23T21:01:40.425Z,11.91
2022-12-23T21:04:13.177Z,11.93
2022-12-23T21:06:40.362Z,11.94
2022-12-23T21:09:09.006Z,11.95
2022-12-23T21:11:38.236Z,11.92
2022-12-23T21:14:07.158Z,11.86
2022-12-23T21:16:36.285Z,11.87
2022-12-23T21:19:04.493Z,11.92
2022-12-23T21:21:31.850Z,11.89
2022-12-23T21:24:01.503Z,11.91
2022-12-23T21:26:30.101Z,11.90
2022-12-23T21:29:01.421Z,11.93
2022-12-23T21:31:29.831Z,11.93
2022-12-23T21:33:57.853Z,11.88
2022-12-23T21:36:27.008Z,11.89
2022-12-23T21:38:54.155Z,11.89
2022-12-23T21:41:23.730Z,11.88
2022-12-23T21:43:51.358Z,11.89
2022-12-23T21:46:22.049Z,11.90
2022-12-23T21:48:49.650Z,11.95
2022-12-23T21:51:36.662Z,11.93
2022-12-23T21:54:06.215Z,11.92
2022-12-23T21:56:32.938Z,11.92
2022-12-23T21:59:04.864Z,11.94
2022-12-23T22:01:37.427Z,11.90
2022-12-23T22:04:04.396Z,11.88
2022-12-23T22:06:40.439Z,11.91
2022-12-23T22:09:13.893Z,11.94
2022-12-23T22:11:41.336Z,11.96
2022-12-23T22:14:11.766Z,11.93
2022-12-23T22:16:38.713Z,11.94
2022-12-23T22:19:09.317Z,11.95
2022-12-23T22:21:36.598Z,11.94
2022-12-23T22:24:03.562Z,11.99
2022-12-23T22:26:32.641Z,12.04
2022-12-23T22:29:06.059Z,12.04
2022-12-23T22:31:45.262Z,12.02
2022-12-23T22:34:23.175Z,11.97
2022-12-23T22:36:53.517Z,11.96
2022-12-23T22:39:21.970Z,11.96
2022-12-23T22:41:50.772Z,11.96
2022-12-23T22:44:18.758Z,11.97
2022-12-23T22:46:45.776Z,11.96
2022-12-23T22:49:14.496Z,11.95
2022-12-23T22:51:41.924Z,11.91
2022-12-23T22:54:09.515Z,11.92
2022-12-23T22:56:36.867Z,11.92
2022-12-23T22:59:04.767Z,11.88
2022-12-23T23:01:35.325Z,11.85
2022-12-23T23:04:04.058Z,11.84
2022-12-23T23:06:35.396Z,11.82
2022-12-23T23:09:02.216Z,11.83
2022-12-23T23:11:29.489Z,11.87
2022-12-23T23:13:56.868Z,11.88
2022-12-23T23:16:25.429Z,11.91
2022-12-23T23:18:53.545Z,11.91
2022-12-23T23:21:21.565Z,11.92
2022-12-23T23:23:48.361Z,11.92
2022-12-23T23:26:15.644Z,11.96
2022-12-23T23:28:43.069Z,11.98
2022-12-23T23:33:57.989Z,12.02
2022-12-23T23:36:25.125Z,11.98
2022-12-23T23:38:51.973Z,11.95
2022-12-23T23:41:22.890Z,11.95
2022-12-23T23:43:54.970Z,11.94
2022-12-23T23:46:21.891Z,11.94
2022-12-23T23:48:48.834Z,11.94
2022-12-23T23:51:15.621Z,11.96
2022-12-23T23:53:42.566Z,11.97
2022-12-23T23:56:09.627Z,11.98
2022-12-23T23:58:37.427Z,11.93
